createdAt,value
2018-08-03T00:03:40.784Z,4.30
2018-08-03T00:07:44.472Z,4.20
2018-08-03T00:11:48.170Z,5.30
2018-08-03T00:15:51.822Z,4.70
2018-08-03T00:19:55.462Z,5.40
2018-08-03T00:23:59.183Z,5.13
2018-08-03T00:28:02.891Z,5.20
2018-08-03T00:32:06.565Z,5.07
2018-08-03T00:36:10.247Z,4.77
2018-08-03T00:40:13.879Z,5.93
2018-08-03T00:44:17.552Z,5.80
2018-08-03T00:48:21.199Z,6.50
2018-08-03T00:52:24.896Z,5.37
2018-08-03T00:56:28.567Z,5.70
2018-08-03T01:00:32.265Z,6.20
2018-08-03T01:04:35.938Z,5.97
2018-08-03T01:08:39.621Z,5.70
2018-08-03T01:17:01.004Z,5.27
2018-08-03T01:21:04.727Z,5.53
2018-08-03T01:25:08.467Z,6.33
2018-08-03T01:29:12.172Z,5.17
2018-08-03T01:33:15.955Z,5.03
2018-08-03T01:37:19.744Z,5.87
2018-08-03T01:41:23.586Z,5.87
2018-08-03T01:45:27.365Z,6.13
2018-08-03T01:49:31.051Z,5.90
2018-08-03T01:53:34.736Z,5.77
2018-08-03T01:57:38.447Z,5.23
2018-08-03T02:01:42.179Z,6.30
2018-08-03T02:05:45.913Z,7.20
2018-08-03T02:09:49.616Z,7.60
2018-08-03T02:13:53.343Z,7.70
2018-08-03T02:17:57.027Z,6.97
2018-08-03T02:22:00.787Z,7.63
2018-08-03T02:26:04.500Z,6.30
2018-08-03T02:30:08.168Z,7.13
2018-08-03T02:34:11.868Z,6.40
2018-08-03T02:38:15.545Z,6.57
2018-08-03T02:42:19.598Z,7.30
2018-08-03T02:46:23.219Z,6.97
2018-08-03T02:50:26.938Z,7.57
2018-08-03T02:54:30.628Z,7.90
2018-08-03T02:58:34.299Z,8.27
2018-08-03T03:02:37.988Z,8.40
2018-08-03T03:06:41.709Z,6.93
2018-08-03T03:10:45.487Z,6.93
2018-08-03T03:14:49.155Z,6.57
2018-08-03T03:18:52.809Z,7.37
2018-08-03T03:22:56.549Z,7.23
2018-08-03T03:27:00.282Z,7.13
2018-08-03T03:31:03.980Z,7.73
2018-08-03T03:35:07.719Z,7.30
2018-08-03T03:39:13.417Z,7.43
2018-08-03T03:43:17.100Z,8.07
2018-08-03T03:47:20.831Z,8.43
2018-08-03T03:51:24.566Z,7.67
2018-08-03T03:55:28.263Z,6.87
2018-08-03T03:59:31.923Z,7.43
2018-08-03T04:03:35.617Z,6.90
2018-08-03T04:07:39.316Z,6.67
2018-08-03T04:11:42.954Z,7.50
2018-08-03T04:15:46.654Z,6.97
2018-08-03T04:19:50.318Z,7.73
2018-08-03T04:23:54.020Z,7.63
2018-08-03T04:27:57.717Z,7.23
2018-08-03T04:32:01.396Z,10.50
2018-08-03T04:36:05.162Z,10.17
2018-08-03T04:40:08.875Z,9.70
2018-08-03T04:44:12.572Z,8.70
2018-08-03T04:48:16.284Z,8.57
2018-08-03T04:52:20.066Z,10.83
2018-08-03T04:56:23.797Z,12.00
2018-08-03T05:00:27.492Z,11.27
2018-08-03T05:04:31.176Z,10.50
2018-08-03T05:08:34.892Z,10.83
2018-08-03T05:12:38.570Z,13.27
2018-08-03T05:16:42.344Z,12.83
2018-08-03T05:20:46.051Z,13.37
2018-08-03T05:24:49.800Z,12.67
2018-08-03T05:28:53.488Z,12.40
2018-08-03T05:32:57.164Z,12.23
2018-08-03T05:37:00.905Z,13.47
2018-08-03T05:41:04.686Z,12.77
2018-08-03T05:45:08.862Z,13.10
2018-08-03T05:49:12.556Z,13.80
2018-08-03T05:53:16.233Z,12.23
2018-08-03T05:57:20.094Z,12.57
2018-08-03T06:01:23.827Z,13.17
2018-08-03T06:05:27.530Z,13.27
2018-08-03T06:09:31.224Z,10.90
2018-08-03T06:13:34.908Z,12.93
2018-08-03T06:17:39.079Z,13.73
2018-08-03T06:21:42.815Z,12.10
2018-08-03T06:25:46.520Z,11.03
2018-08-03T06:29:56.732Z,9.40
2018-08-03T06:34:00.373Z,10.03
2018-08-03T06:38:04.055Z,10.17
2018-08-03T06:42:07.837Z,10.57
2018-08-03T06:46:11.815Z,9.10
2018-08-03T06:50:15.597Z,9.60
2018-08-03T06:54:19.331Z,7.43
2018-08-03T06:58:22.988Z,8.13
2018-08-03T07:02:26.663Z,6.70
2018-08-03T07:06:30.354Z,6.63
2018-08-03T07:10:34.021Z,7.40
2018-08-03T07:14:37.719Z,5.97
2018-08-03T07:18:41.374Z,6.77
2018-08-03T07:22:45.145Z,6.30
2018-08-03T07:26:48.850Z,5.23
2018-08-03T07:30:52.567Z,5.80
2018-08-03T07:34:56.255Z,4.40
2018-08-03T07:38:59.951Z,5.53
2018-08-03T07:43:03.752Z,5.07
2018-08-03T07:47:07.572Z,4.93
2018-08-03T07:51:11.275Z,4.60
2018-08-03T07:55:14.983Z,5.10
2018-08-03T07:59:18.716Z,4.33
2018-08-03T08:03:22.456Z,4.50
2018-08-03T08:07:26.270Z,3.67
2018-08-03T08:11:30.127Z,4.30
2018-08-03T08:15:33.965Z,4.27
2018-08-03T08:19:37.788Z,4.10
2018-08-03T08:23:41.606Z,4.47
2018-08-03T08:27:45.382Z,3.93
2018-08-03T08:31:49.113Z,4.43
2018-08-03T08:35:52.863Z,3.93
2018-08-03T08:39:56.526Z,4.07
2018-08-03T08:44:00.268Z,3.77
2018-08-03T08:48:03.957Z,4.10
2018-08-03T08:52:07.647Z,4.17
2018-08-03T08:56:11.399Z,4.30
2018-08-03T09:00:15.044Z,3.80
2018-08-03T09:04:18.707Z,4.00
2018-08-03T09:08:22.380Z,4.30
2018-08-03T09:12:26.032Z,4.23
2018-08-03T09:16:29.695Z,4.23
2018-08-03T09:20:33.361Z,3.10
2018-08-03T09:24:37.080Z,3.40
2018-08-03T09:28:40.769Z,2.80
2018-08-03T09:32:44.448Z,3.10
2018-08-03T09:36:48.134Z,3.10
2018-08-03T09:40:51.769Z,2.97
2018-08-03T09:44:55.446Z,2.93
2018-08-03T09:48:59.140Z,3.10
2018-08-03T09:53:02.869Z,2.97
2018-08-03T09:57:06.604Z,3.00
2018-08-03T10:01:10.295Z,2.80
2018-08-03T10:05:14.007Z,2.40
2018-08-03T10:09:17.675Z,2.77
2018-08-03T10:13:21.342Z,3.03
2018-08-03T10:17:25.126Z,2.77
2018-08-03T10:21:28.899Z,2.60
2018-08-03T10:25:32.669Z,2.40
2018-08-03T10:29:37.216Z,2.77
2018-08-03T10:33:40.881Z,2.30
2018-08-03T10:37:44.584Z,2.27
2018-08-03T10:41:48.209Z,2.50
2018-08-03T10:45:51.864Z,2.30
2018-08-03T10:49:55.589Z,2.53
2018-08-03T10:53:59.353Z,2.27
2018-08-03T10:58:03.138Z,2.30
2018-08-03T11:02:06.981Z,2.50
2018-08-03T11:06:10.701Z,2.43
2018-08-03T11:10:15.025Z,2.20
2018-08-03T11:14:18.709Z,2.40
2018-08-03T11:18:22.440Z,2.30
2018-08-03T11:22:26.150Z,2.80
2018-08-03T11:26:29.795Z,2.23
2018-08-03T11:30:33.450Z,2.17
2018-08-03T11:34:37.118Z,2.17
2018-08-03T11:38:40.796Z,2.40
2018-08-03T11:42:44.463Z,2.17
2018-08-03T11:46:48.179Z,2.30
2018-08-03T11:50:51.861Z,2.27
2018-08-03T11:54:55.576Z,2.70
2018-08-03T11:58:59.324Z,2.43
2018-08-03T12:03:03.013Z,2.10
2018-08-03T12:07:09.479Z,2.00
2018-08-03T12:11:13.156Z,2.20
2018-08-03T12:15:16.849Z,2.93
2018-08-03T12:19:20.531Z,2.40
2018-08-03T12:23:24.295Z,2.70
2018-08-03T12:27:27.973Z,2.30
2018-08-03T12:31:31.677Z,2.50
2018-08-03T12:35:35.377Z,2.97
2018-08-03T12:39:39.036Z,2.50
2018-08-03T12:43:42.740Z,2.73
2018-08-03T12:47:46.411Z,2.30
2018-08-03T12:51:50.092Z,2.40
2018-08-03T12:55:53.788Z,2.70
2018-08-03T12:59:57.521Z,2.30
2018-08-03T13:04:01.176Z,2.87
2018-08-03T13:08:05.038Z,2.43
2018-08-03T13:12:08.158Z,2.57
2018-08-03T13:16:11.878Z,2.63
2018-08-03T13:20:15.607Z,2.40
2018-08-03T13:24:19.299Z,2.60
2018-08-03T13:28:22.951Z,2.87
2018-08-03T13:32:26.650Z,2.80
2018-08-03T13:36:31.189Z,2.63
2018-08-03T13:40:34.877Z,2.80
2018-08-03T13:44:38.593Z,3.10
2018-08-03T13:48:42.900Z,2.90
2018-08-03T13:52:46.599Z,2.67
2018-08-03T13:56:50.277Z,2.67
2018-08-03T14:01:03.927Z,2.83
2018-08-03T14:05:07.898Z,2.87
2018-08-03T14:09:11.558Z,3.07
2018-08-03T14:13:15.348Z,2.33
2018-08-03T14:17:19.205Z,2.50
2018-08-03T14:21:29.241Z,2.47
2018-08-03T14:25:33.057Z,2.60
2018-08-03T14:29:36.703Z,2.73
2018-08-03T14:33:40.383Z,2.70
2018-08-03T14:37:44.074Z,2.67
2018-08-03T14:41:47.759Z,2.53
2018-08-03T14:45:51.490Z,2.87
2018-08-03T14:50:06.420Z,2.90
2018-08-03T14:54:10.033Z,2.90
2018-08-03T14:58:13.787Z,3.30
2018-08-03T15:02:17.476Z,2.87
2018-08-03T15:06:21.224Z,2.77
2018-08-03T15:10:24.923Z,2.70
2018-08-03T15:14:28.578Z,2.53
2018-08-03T15:18:32.277Z,2.70
2018-08-03T15:22:36.027Z,2.90
2018-08-03T15:26:39.732Z,3.23
2018-08-03T15:30:43.437Z,2.67
2018-08-03T15:34:47.146Z,3.00
2018-08-03T15:38:50.870Z,2.67
2018-08-03T15:42:54.590Z,2.37
2018-08-03T15:46:58.281Z,2.60
2018-08-03T15:51:01.970Z,2.50
2018-08-03T15:55:05.770Z,2.60
2018-08-03T15:59:09.747Z,2.70
2018-08-03T16:03:13.870Z,2.87
2018-08-03T16:07:17.644Z,2.60
2018-08-03T16:11:21.486Z,2.40
2018-08-03T16:15:25.121Z,2.30
2018-08-03T16:19:28.869Z,2.93
2018-08-03T16:23:32.670Z,2.60
2018-08-03T16:27:36.407Z,2.50
2018-08-03T16:31:40.137Z,2.50
2018-08-03T16:35:43.824Z,2.50
2018-08-03T16:39:47.584Z,2.40
2018-08-03T16:43:51.289Z,2.20
2018-08-03T16:47:55.028Z,2.50
2018-08-03T16:51:58.758Z,2.60
2018-08-03T16:56:02.681Z,2.50
2018-08-03T17:00:07.014Z,2.67
2018-08-03T17:04:10.712Z,3.07
2018-08-03T17:08:14.484Z,2.70
2018-08-03T17:12:18.176Z,2.40
2018-08-03T17:16:21.853Z,2.87
2018-08-03T17:20:25.755Z,2.57
2018-08-03T17:24:29.473Z,2.60
2018-08-03T17:28:33.182Z,2.17
2018-08-03T17:32:36.872Z,2.60
2018-08-03T17:36:40.543Z,2.40
2018-08-03T17:40:44.235Z,2.57
2018-08-03T17:44:47.929Z,2.57
2018-08-03T17:48:51.640Z,2.40
2018-08-03T17:52:55.321Z,3.07
2018-08-03T17:56:59.054Z,3.70
2018-08-03T18:01:02.716Z,3.77
2018-08-03T18:05:06.500Z,3.83
2018-08-03T18:09:10.169Z,4.23
2018-08-03T18:13:13.874Z,4.43
2018-08-03T18:17:17.550Z,3.83
2018-08-03T18:21:21.232Z,3.33
2018-08-03T18:25:24.970Z,3.93
2018-08-03T18:29:28.657Z,3.60
2018-08-03T18:33:32.706Z,3.57
2018-08-03T18:37:36.416Z,3.73
2018-08-03T18:41:40.196Z,3.33
2018-08-03T18:45:43.991Z,3.47
2018-08-03T18:49:47.671Z,3.53
2018-08-03T18:53:51.353Z,3.10
2018-08-03T18:57:55.036Z,2.93
2018-08-03T19:01:58.727Z,3.33
2018-08-03T19:06:02.476Z,3.40
2018-08-03T19:10:06.331Z,3.10
2018-08-03T19:14:10.176Z,3.20
2018-08-03T19:18:13.867Z,3.47
2018-08-03T19:22:17.526Z,3.60
2018-08-03T19:26:21.261Z,4.27
2018-08-03T19:30:24.975Z,3.30
2018-08-03T19:34:28.625Z,3.07
2018-08-03T19:38:32.290Z,2.87
2018-08-03T19:42:35.929Z,3.10
2018-08-03T19:46:39.621Z,2.77
2018-08-03T19:50:43.305Z,2.70
2018-08-03T19:54:46.954Z,3.07
2018-08-03T19:58:51.960Z,2.97
2018-08-03T20:02:56.749Z,3.13
2018-08-03T20:07:01.099Z,2.80
2018-08-03T20:11:05.812Z,2.47
2018-08-03T20:15:10.874Z,2.30
2018-08-03T20:19:14.551Z,2.40
2018-08-03T20:23:18.294Z,2.47
2018-08-03T20:27:22.000Z,2.60
2018-08-03T20:31:25.723Z,2.30
2018-08-03T20:35:29.459Z,2.10
2018-08-03T20:39:33.213Z,2.77
2018-08-03T20:43:36.903Z,2.50
2018-08-03T20:47:40.606Z,2.40
2018-08-03T20:51:44.291Z,2.63
2018-08-03T20:55:48.008Z,2.23
2018-08-03T20:59:51.673Z,2.10
2018-08-03T21:03:55.309Z,2.37
2018-08-03T21:07:58.983Z,1.80
2018-08-03T21:12:02.915Z,2.40
2018-08-03T21:16:06.627Z,2.07
2018-08-03T21:20:10.759Z,2.40
2018-08-03T21:24:14.427Z,2.33
2018-08-03T21:28:18.088Z,2.03
2018-08-03T21:32:21.748Z,2.20
2018-08-03T21:36:25.545Z,2.10
2018-08-03T21:40:29.216Z,2.03
2018-08-03T21:44:32.852Z,2.20
2018-08-03T21:48:36.579Z,2.20
2018-08-03T21:52:40.283Z,2.33
2018-08-03T21:56:43.955Z,2.00
2018-08-03T22:00:47.326Z,2.57
2018-08-03T22:04:50.991Z,2.37
2018-08-03T22:08:54.672Z,1.80
2018-08-03T22:12:58.320Z,2.33
2018-08-03T22:17:02.131Z,1.83
2018-08-03T22:21:05.871Z,1.80
2018-08-03T22:25:09.758Z,1.90
2018-08-03T22:29:13.496Z,2.10
2018-08-03T22:33:17.154Z,1.80
2018-08-03T22:37:20.867Z,1.63
2018-08-03T22:41:24.574Z,2.10
2018-08-03T22:45:28.306Z,2.10
2018-08-03T22:49:31.979Z,1.97
2018-08-03T22:53:35.639Z,2.33
2018-08-03T22:57:39.340Z,1.77
2018-08-03T23:01:43.096Z,2.13
2018-08-03T23:05:46.762Z,2.30
2018-08-03T23:09:50.394Z,2.00
2018-08-03T23:13:54.091Z,2.13
2018-08-03T23:17:57.919Z,2.50
2018-08-03T23:22:01.628Z,2.17
2018-08-03T23:26:05.311Z,2.23
2018-08-03T23:30:09.797Z,2.37
2018-08-03T23:34:13.471Z,2.57
2018-08-03T23:38:17.163Z,2.20
2018-08-03T23:42:20.855Z,2.17
2018-08-03T23:46:24.591Z,2.50
2018-08-03T23:50:28.251Z,2.30
2018-08-03T23:54:31.922Z,2.10
2018-08-03T23:58:35.581Z,2.10
